createdAt,value
2016-06-09T00:00:23.392Z,1014.26
2016-06-09T00:01:22.630Z,1014.28
2016-06-09T00:02:22.617Z,1014.25
2016-06-09T00:03:22.605Z,1014.25
2016-06-09T00:04:22.592Z,1014.25
2016-06-09T00:05:22.579Z,1014.28
2016-06-09T00:06:22.567Z,1014.32
2016-06-09T00:07:22.554Z,1014.29
2016-06-09T00:08:22.589Z,1014.29
2016-06-09T00:09:22.529Z,1014.25
2016-06-09T00:10:22.517Z,1014.25
2016-06-09T00:11:22.504Z,1014.22
2016-06-09T00:12:22.491Z,1014.21
2016-06-09T00:13:22.478Z,1014.26
2016-06-09T00:14:22.450Z,1014.23
2016-06-09T00:15:22.438Z,1014.27
2016-06-09T00:16:22.628Z,1014.25
2016-06-09T00:17:22.429Z,1014.21
2016-06-09T00:18:23.056Z,1014.23
2016-06-09T00:19:22.388Z,1014.23
2016-06-09T00:20:22.375Z,1014.24
2016-06-09T00:21:22.378Z,1014.25
2016-06-09T00:22:22.350Z,1014.2
2016-06-09T00:23:22.339Z,1014.19
2016-06-09T00:24:22.637Z,1014.2
2016-06-09T00:25:22.312Z,1014.18
2016-06-09T00:26:22.316Z,1014.17
2016-06-09T00:27:22.288Z,1014.16
2016-06-09T00:28:22.275Z,1014.17
2016-06-09T00:29:22.262Z,1014.18
2016-06-09T00:30:22.250Z,1014.2
2016-06-09T00:31:22.238Z,1014.17
2016-06-09T00:32:22.631Z,1014.21
2016-06-09T00:33:22.212Z,1014.18
2016-06-09T00:34:22.200Z,1014.15
2016-06-09T00:35:22.188Z,1014.22
2016-06-09T00:36:22.174Z,1014.22
2016-06-09T00:37:22.162Z,1014.19
2016-06-09T00:38:22.150Z,1014.16
2016-06-09T00:39:22.137Z,1014.2
2016-06-09T00:40:22.124Z,1014.2
2016-06-09T00:41:22.112Z,1014.22
2016-06-09T00:42:22.100Z,1014.17
2016-06-09T00:43:22.086Z,1014.19
2016-06-09T00:44:22.074Z,1014.22
2016-06-09T00:45:22.061Z,1014.22
2016-06-09T00:46:22.049Z,1014.2
2016-06-09T00:47:22.037Z,1014.15
2016-06-09T00:48:22.024Z,1014.18
2016-06-09T00:49:22.011Z,1014.15
2016-06-09T00:50:21.999Z,1014.21
2016-06-09T00:51:21.987Z,1014.19
2016-06-09T00:52:21.973Z,1014.22
2016-06-09T00:53:21.962Z,1014.2
2016-06-09T00:54:21.949Z,1014.24
2016-06-09T00:55:21.936Z,1014.22
2016-06-09T00:56:21.923Z,1014.24
2016-06-09T00:57:21.911Z,1014.22
2016-06-09T00:58:21.899Z,1014.22
2016-06-09T00:59:21.886Z,1014.16
2016-06-09T01:00:21.873Z,1014.21
2016-06-09T01:01:21.861Z,1014.23
2016-06-09T01:02:21.848Z,1014.2
2016-06-09T01:03:21.836Z,1014.21
2016-06-09T01:04:22.526Z,1014.2
2016-06-09T01:05:21.811Z,1014.23
2016-06-09T01:06:21.798Z,1014.24
2016-06-09T01:07:21.785Z,1014.23
2016-06-09T01:08:21.772Z,1014.21
2016-06-09T01:09:21.761Z,1014.2
2016-06-09T01:10:21.748Z,1014.23
2016-06-09T01:11:21.736Z,1014.24
2016-06-09T01:12:21.723Z,1014.19
2016-06-09T01:13:21.710Z,1014.2
2016-06-09T01:14:21.698Z,1014.22
2016-06-09T01:15:21.685Z,1014.19
2016-06-09T01:16:21.672Z,1014.2
2016-06-09T01:17:21.660Z,1014.24
2016-06-09T01:18:21.648Z,1014.2
2016-06-09T01:19:21.635Z,1014.22
2016-06-09T01:20:21.622Z,1014.17
2016-06-09T01:21:21.610Z,1014.16
2016-06-09T01:22:21.598Z,1014.17
2016-06-09T01:23:21.568Z,1014.17
2016-06-09T01:24:21.572Z,1014.16
2016-06-09T01:25:21.544Z,1014.13
2016-06-09T01:26:21.547Z,1014.11
2016-06-09T01:27:21.518Z,1014.11
2016-06-09T01:28:21.522Z,1014.19
2016-06-09T01:29:21.510Z,1014.1
2016-06-09T01:30:21.481Z,1014.09
2016-06-09T01:31:21.468Z,1014.15
2016-06-09T01:32:21.456Z,1014.14
2016-06-09T01:33:21.460Z,1014.14
2016-06-09T01:34:21.431Z,1014.12
2016-06-09T01:35:21.418Z,1014.21
2016-06-09T01:36:21.406Z,1014.19
2016-06-09T01:37:21.393Z,1014.2
2016-06-09T01:38:21.397Z,1014.24
2016-06-09T01:39:21.368Z,1014.2
2016-06-09T01:40:21.356Z,1014.25
2016-06-09T01:41:21.343Z,1014.22
2016-06-09T01:42:21.346Z,1014.23
2016-06-09T01:43:21.318Z,1014.23
2016-06-09T01:44:21.305Z,1014.25
2016-06-09T01:45:21.294Z,1014.21
2016-06-09T01:46:21.280Z,1014.27
2016-06-09T01:47:21.268Z,1014.25
2016-06-09T01:48:21.271Z,1014.25
2016-06-09T01:49:21.259Z,1014.28
2016-06-09T01:50:21.231Z,1014.21
2016-06-09T01:51:21.218Z,1014.22
2016-06-09T01:52:21.205Z,1014.22
2016-06-09T01:53:21.208Z,1014.22
2016-06-09T01:54:21.179Z,1014.21
2016-06-09T01:55:21.167Z,1014.2
2016-06-09T01:56:21.155Z,1014.16
2016-06-09T01:57:21.142Z,1014.18
2016-06-09T01:58:21.130Z,1014.16
2016-06-09T01:59:21.118Z,1014.15
2016-06-09T02:00:21.104Z,1014.18
2016-06-09T02:01:21.092Z,1014.16
2016-06-09T02:02:21.080Z,1014.13
2016-06-09T02:03:21.880Z,1014.15
2016-06-09T02:04:21.055Z,1014.11
2016-06-09T02:05:21.042Z,1014.11
2016-06-09T02:06:21.030Z,1014.12
2016-06-09T02:07:21.017Z,1014.15
2016-06-09T02:08:21.004Z,1014.14
2016-06-09T02:09:20.992Z,1014.17
2016-06-09T02:10:20.979Z,1014.14
2016-06-09T02:11:20.966Z,1014.15
2016-06-09T02:12:20.954Z,1014.14
2016-06-09T02:13:20.942Z,1014.12
2016-06-09T02:14:20.929Z,1014.14
2016-06-09T02:15:20.917Z,1014.16
2016-06-09T02:16:20.904Z,1014.12
2016-06-09T02:17:20.892Z,1014.18
2016-06-09T02:18:20.862Z,1014.2
2016-06-09T02:19:20.866Z,1014.21
2016-06-09T02:20:20.854Z,1014.16
2016-06-09T02:21:20.838Z,1014.18
2016-06-09T02:22:20.825Z,1014.19
2016-06-09T02:23:20.813Z,1014.21
2016-06-09T02:24:20.785Z,1014.26
2016-06-09T02:25:20.772Z,1014.23
2016-06-09T02:26:20.759Z,1014.19
2016-06-09T02:27:20.747Z,1014.25
2016-06-09T02:28:20.734Z,1014.24
2016-06-09T02:29:20.723Z,1014.25
2016-06-09T02:30:20.710Z,1014.23
2016-06-09T02:31:20.697Z,1014.26
2016-06-09T02:32:20.685Z,1014.18
2016-06-09T02:33:20.688Z,1014.18
2016-06-09T02:34:20.659Z,1014.25
2016-06-09T02:35:20.662Z,1014.22
2016-06-09T02:36:20.650Z,1014.24
2016-06-09T02:37:20.637Z,1014.24
2016-06-09T02:38:20.609Z,1014.25
2016-06-09T02:39:20.597Z,1014.22
2016-06-09T02:40:20.584Z,1014.23
2016-06-09T02:41:20.571Z,1014.2
2016-06-09T02:42:20.559Z,1014.23
2016-06-09T02:43:20.547Z,1014.2
2016-06-09T02:44:20.533Z,1014.24
2016-06-09T02:45:20.522Z,1014.26
2016-06-09T02:46:20.508Z,1014.22
2016-06-09T02:47:20.496Z,1014.24
2016-06-09T02:48:20.484Z,1014.16
2016-06-09T02:49:20.470Z,1014.18
2016-06-09T02:50:20.458Z,1014.19
2016-06-09T02:51:20.446Z,1014.19
2016-06-09T02:52:20.433Z,1014.21
2016-06-09T02:53:20.421Z,1014.22
2016-06-09T02:54:20.408Z,1014.22
2016-06-09T02:55:20.395Z,1014.22
2016-06-09T02:56:20.384Z,1014.24
2016-06-09T02:57:20.370Z,1014.2
2016-06-09T02:58:20.357Z,1014.24
2016-06-09T02:59:20.346Z,1014.23
2016-06-09T03:00:20.333Z,1014.27
2016-06-09T03:01:20.320Z,1014.23
2016-06-09T03:02:20.308Z,1014.23
2016-06-09T03:03:20.295Z,1014.24
2016-06-09T03:04:20.283Z,1014.26
2016-06-09T03:05:20.270Z,1014.26
2016-06-09T03:06:20.258Z,1014.27
2016-06-09T03:07:20.245Z,1014.25
2016-06-09T03:08:20.232Z,1014.24
2016-06-09T03:09:20.205Z,1014.23
2016-06-09T03:10:20.192Z,1014.26
2016-06-09T03:11:20.194Z,1014.23
2016-06-09T03:12:20.183Z,1014.22
2016-06-09T03:13:20.170Z,1014.24
2016-06-09T03:14:20.157Z,1014.25
2016-06-09T03:15:20.128Z,1014.21
2016-06-09T03:16:20.117Z,1014.29
2016-06-09T03:17:20.120Z,1014.24
2016-06-09T03:18:20.091Z,1014.27
2016-06-09T03:19:20.079Z,1014.23
2016-06-09T03:20:20.082Z,1014.29
2016-06-09T03:21:20.053Z,1014.26
2016-06-09T03:22:20.041Z,1014.21
2016-06-09T03:23:20.028Z,1014.24
2016-06-09T03:24:20.016Z,1014.2
2016-06-09T03:25:20.003Z,1014.22
2016-06-09T03:26:19.991Z,1014.2
2016-06-09T03:27:19.979Z,1014.24
2016-06-09T03:28:19.965Z,1014.24
2016-06-09T03:29:19.953Z,1014.29
2016-06-09T03:30:19.941Z,1014.24
2016-06-09T03:31:19.928Z,1014.27
2016-06-09T03:32:19.916Z,1014.23
2016-06-09T03:33:19.904Z,1014.27
2016-06-09T03:34:19.890Z,1014.25
2016-06-09T03:35:19.878Z,1014.27
2016-06-09T03:36:19.866Z,1014.26
2016-06-09T03:37:19.853Z,1014.31
2016-06-09T03:38:19.840Z,1014.3
2016-06-09T03:39:19.828Z,1014.28
2016-06-09T03:40:19.816Z,1014.3
2016-06-09T03:41:19.803Z,1014.33
2016-06-09T03:42:19.789Z,1014.35
2016-06-09T03:43:19.778Z,1014.38
2016-06-09T03:44:19.765Z,1014.37
2016-06-09T03:45:19.752Z,1014.35
2016-06-09T03:46:19.740Z,1014.35
2016-06-09T03:47:19.727Z,1014.34
2016-06-09T03:48:19.715Z,1014.31
2016-06-09T03:49:19.702Z,1014.33
2016-06-09T03:50:19.690Z,1014.34
2016-06-09T03:51:19.786Z,1014.34
2016-06-09T03:52:19.664Z,1014.38
2016-06-09T03:53:19.652Z,1014.4
2016-06-09T03:54:19.624Z,1014.42
2016-06-09T03:55:19.626Z,1014.39
2016-06-09T03:56:19.599Z,1014.35
2016-06-09T03:57:19.602Z,1014.31
2016-06-09T03:58:19.589Z,1014.29
2016-06-09T03:59:19.717Z,1014.26
2016-06-09T04:00:19.548Z,1014.3
2016-06-09T04:01:19.536Z,1014.3
2016-06-09T04:02:19.523Z,1014.31
2016-06-09T04:03:19.512Z,1014.31
2016-06-09T04:04:19.499Z,1014.28
2016-06-09T04:05:19.485Z,1014.26
2016-06-09T04:06:19.474Z,1014.25
2016-06-09T04:07:19.711Z,1014.23
2016-06-09T04:08:19.448Z,1014.25
2016-06-09T04:09:19.435Z,1014.26
2016-06-09T04:10:19.423Z,1014.2
2016-06-09T04:11:19.411Z,1014.2
2016-06-09T04:12:19.398Z,1014.25
2016-06-09T04:13:19.385Z,1014.17
2016-06-09T04:14:19.373Z,1014.24
2016-06-09T04:15:19.766Z,1014.15
2016-06-09T04:16:19.348Z,1014.17
2016-06-09T04:17:19.336Z,1014.16
2016-06-09T04:18:19.322Z,1014.15
2016-06-09T04:19:19.794Z,1014.17
2016-06-09T04:20:19.298Z,1014.14
2016-06-09T04:21:19.285Z,1014.15
2016-06-09T04:22:19.272Z,1014.16
2016-06-09T04:23:19.760Z,1014.16
2016-06-09T04:24:19.247Z,1014.13
2016-06-09T04:25:19.235Z,1014.14
2016-06-09T04:26:19.222Z,1014.11
2016-06-09T04:27:19.210Z,1014.13
2016-06-09T04:28:19.197Z,1014.09
2016-06-09T04:29:19.184Z,1014.06
2016-06-09T04:30:19.173Z,1014.05
2016-06-09T04:31:19.754Z,1014.04
2016-06-09T04:32:19.147Z,1014.07
2016-06-09T04:33:19.134Z,1014
2016-06-09T04:34:19.888Z,1014.01
2016-06-09T04:35:19.094Z,1014.02
2016-06-09T04:36:19.096Z,1014.03
2016-06-09T04:37:19.084Z,1014.04
2016-06-09T04:38:19.056Z,1014.04
2016-06-09T04:39:19.747Z,1014.04
2016-06-09T04:40:19.031Z,1014.02
2016-06-09T04:41:19.018Z,1014.04
2016-06-09T04:42:19.006Z,1013.97
2016-06-09T04:43:18.993Z,1014.02
2016-06-09T04:44:18.997Z,1014.02
2016-06-09T04:45:18.968Z,1014.04
2016-06-09T04:46:18.955Z,1014.03
2016-06-09T04:47:19.053Z,1014.05
2016-06-09T04:48:18.931Z,1014.08
2016-06-09T04:49:19.120Z,1014.07
2016-06-09T04:50:18.906Z,1014.01
2016-06-09T04:51:18.893Z,1014.05
2016-06-09T04:52:18.880Z,1014.02
2016-06-09T04:53:18.868Z,1014.02
2016-06-09T04:54:18.855Z,1014.01
2016-06-09T04:55:19.046Z,1014.06
2016-06-09T04:56:18.830Z,1013.98
2016-06-09T04:57:18.817Z,1014.02
2016-06-09T04:58:18.806Z,1014.03
2016-06-09T04:59:18.793Z,1014.02
2016-06-09T05:00:18.779Z,1014
2016-06-09T05:01:18.768Z,1014.01
2016-06-09T05:02:18.755Z,1013.97
2016-06-09T05:03:19.086Z,1014
2016-06-09T05:04:18.730Z,1014.03
2016-06-09T05:05:18.935Z,1014.01
2016-06-09T05:06:18.705Z,1014.01
2016-06-09T05:07:18.692Z,1013.96
2016-06-09T05:08:18.679Z,1014.01
2016-06-09T05:09:18.668Z,1014.02
2016-06-09T05:10:18.638Z,1013.99
2016-06-09T05:11:19.079Z,1014.02
2016-06-09T05:12:18.614Z,1013.97
2016-06-09T05:13:18.617Z,1013.96
2016-06-09T05:14:18.588Z,1013.99
2016-06-09T05:15:18.576Z,1013.96
2016-06-09T05:16:18.564Z,1014
2016-06-09T05:17:18.551Z,1013.91
2016-06-09T05:18:18.538Z,1013.92
2016-06-09T05:19:18.526Z,1013.95
2016-06-09T05:20:19.169Z,1013.96
2016-06-09T05:21:18.501Z,1013.94
2016-06-09T05:22:18.488Z,1013.92
2016-06-09T05:23:18.475Z,1013.91
2016-06-09T05:24:18.463Z,1013.93
2016-06-09T05:25:18.450Z,1013.92
2016-06-09T05:26:18.438Z,1013.93
2016-06-09T05:27:18.426Z,1013.93
2016-06-09T05:28:18.413Z,1013.93
2016-06-09T05:29:18.400Z,1013.9
2016-06-09T05:30:18.388Z,1013.97
2016-06-09T05:31:18.375Z,1013.95
2016-06-09T05:32:18.363Z,1013.99
2016-06-09T05:33:18.350Z,1013.92
2016-06-09T05:34:18.337Z,1013.98
2016-06-09T05:35:18.325Z,1013.96
2016-06-09T05:36:18.313Z,1013.96
2016-06-09T05:37:18.300Z,1013.99
2016-06-09T05:38:18.287Z,1014
2016-06-09T05:39:18.274Z,1014.02
2016-06-09T05:40:18.247Z,1013.99
2016-06-09T05:41:18.250Z,1014.02
2016-06-09T05:42:18.222Z,1014
2016-06-09T05:43:18.225Z,1013.97
2016-06-09T05:44:18.196Z,1013.99
2016-06-09T05:45:18.184Z,1013.98
2016-06-09T05:46:18.170Z,1013.92
2016-06-09T05:47:18.159Z,1013.89
2016-06-09T05:48:18.146Z,1013.91
2016-06-09T05:49:18.133Z,1013.96
2016-06-09T05:50:18.121Z,1013.94
2016-06-09T05:51:18.108Z,1013.95
2016-06-09T05:52:18.096Z,1014
2016-06-09T05:53:18.083Z,1014.03
2016-06-09T05:54:18.070Z,1014.01
2016-06-09T05:55:18.059Z,1014.02
2016-06-09T05:56:18.046Z,1014.04
2016-06-09T05:57:18.032Z,1014.03
2016-06-09T05:58:18.021Z,1014.07
2016-06-09T05:59:18.008Z,1014.04
2016-06-09T06:00:17.996Z,1014.11
2016-06-09T06:01:17.999Z,1014.09
2016-06-09T06:02:17.971Z,1014.09
2016-06-09T06:03:17.958Z,1014.08
2016-06-09T06:04:17.946Z,1014.06
2016-06-09T06:05:17.932Z,1014.11
2016-06-09T06:06:17.920Z,1014.08
2016-06-09T06:07:17.907Z,1014.07
2016-06-09T06:08:17.879Z,1014.08
2016-06-09T06:09:17.882Z,1014.1
2016-06-09T06:10:17.870Z,1014.09
2016-06-09T06:11:17.842Z,1014.08
2016-06-09T06:12:17.845Z,1014.08
2016-06-09T06:13:17.832Z,1014.09
2016-06-09T06:14:17.804Z,1014.09
2016-06-09T06:15:17.792Z,1014.15
2016-06-09T06:16:17.779Z,1014.15
2016-06-09T06:17:17.766Z,1014.12
2016-06-09T06:18:17.754Z,1014.14
2016-06-09T06:19:17.742Z,1014.16
2016-06-09T06:20:17.729Z,1014.12
2016-06-09T06:21:17.717Z,1014.1
2016-06-09T06:22:17.704Z,1014.12
2016-06-09T06:23:17.692Z,1014.1
2016-06-09T06:24:17.679Z,1014.09
2016-06-09T06:25:17.666Z,1014.09
2016-06-09T06:26:17.654Z,1014.1
2016-06-09T06:27:17.641Z,1014.07
2016-06-09T06:28:17.628Z,1014.1
2016-06-09T06:29:17.616Z,1014.12
2016-06-09T06:30:17.604Z,1014.14
2016-06-09T06:31:17.591Z,1014.1
2016-06-09T06:32:17.578Z,1014.13
2016-06-09T06:33:17.565Z,1014.05
2016-06-09T06:34:17.554Z,1014.09
2016-06-09T06:35:17.540Z,1014.14
2016-06-09T06:36:17.528Z,1014.11
2016-06-09T06:37:17.516Z,1014.06
2016-06-09T06:38:17.503Z,1014.04
2016-06-09T06:39:17.491Z,1014.08
2016-06-09T06:40:17.478Z,1014.04
2016-06-09T06:41:17.465Z,1014.01
2016-06-09T06:42:17.453Z,1013.97
2016-06-09T06:43:17.440Z,1013.9
2016-06-09T06:44:17.428Z,1013.86
2016-06-09T06:45:17.415Z,1013.84
2016-06-09T06:46:17.387Z,1013.8
2016-06-09T06:47:17.390Z,1013.83
2016-06-09T06:48:17.378Z,1013.85
2016-06-09T06:49:17.365Z,1013.85
2016-06-09T06:50:17.743Z,1013.88
2016-06-09T06:51:17.340Z,1013.83
2016-06-09T06:52:17.311Z,1013.85
2016-06-09T06:53:17.299Z,1013.9
2016-06-09T06:54:17.287Z,1013.9
2016-06-09T06:55:17.274Z,1013.86
2016-06-09T06:56:17.261Z,1013.88
2016-06-09T06:57:17.249Z,1013.9
2016-06-09T06:58:17.236Z,1013.88
2016-06-09T06:59:17.224Z,1013.9
2016-06-09T07:00:17.212Z,1013.91
2016-06-09T07:01:17.198Z,1013.88
2016-06-09T07:02:17.186Z,1013.93
2016-06-09T07:03:17.190Z,1013.92
2016-06-09T07:04:17.161Z,1013.93
2016-06-09T07:05:17.148Z,1013.95
2016-06-09T07:06:17.136Z,1013.91
2016-06-09T07:07:17.123Z,1013.9
2016-06-09T07:08:17.111Z,1013.91
2016-06-09T07:09:17.098Z,1013.95
2016-06-09T07:10:17.101Z,1013.94
2016-06-09T07:11:17.074Z,1013.98
2016-06-09T07:12:17.076Z,1013.94
2016-06-09T07:13:17.048Z,1013.94
2016-06-09T07:14:17.035Z,1013.98
2016-06-09T07:15:17.023Z,1013.96
2016-06-09T07:16:17.010Z,1013.99
2016-06-09T07:17:16.998Z,1013.99
2016-06-09T07:18:16.985Z,1013.97
2016-06-09T07:19:16.973Z,1013.96
2016-06-09T07:20:17.492Z,1013.97
2016-06-09T07:21:16.948Z,1013.95
2016-06-09T07:22:16.935Z,1013.93
2016-06-09T07:23:16.922Z,1013.94
2016-06-09T07:24:16.910Z,1013.94
2016-06-09T07:25:16.897Z,1013.91
2016-06-09T07:26:16.886Z,1013.9
2016-06-09T07:27:16.873Z,1013.94
2016-06-09T07:28:16.860Z,1013.89
2016-06-09T07:29:16.847Z,1013.92
2016-06-09T07:30:16.835Z,1013.98
2016-06-09T07:31:16.822Z,1013.93
2016-06-09T07:32:16.810Z,1013.9
2016-06-09T07:33:16.797Z,1013.88
2016-06-09T07:34:16.784Z,1013.93
2016-06-09T07:35:16.772Z,1013.85
2016-06-09T07:36:16.759Z,1013.88
2016-06-09T07:37:16.747Z,1013.84
2016-06-09T07:38:16.734Z,1013.81
2016-06-09T07:39:16.721Z,1013.79
2016-06-09T07:40:16.709Z,1013.85
2016-06-09T07:41:16.696Z,1013.83
2016-06-09T07:42:16.684Z,1013.86
2016-06-09T07:43:16.672Z,1013.87
2016-06-09T07:44:16.658Z,1013.88
2016-06-09T07:45:16.647Z,1013.83
2016-06-09T07:46:16.634Z,1013.81
2016-06-09T07:47:16.621Z,1013.86
2016-06-09T07:48:16.609Z,1013.8
2016-06-09T07:49:16.596Z,1013.78
2016-06-09T07:50:17.084Z,1013.8
2016-06-09T07:51:16.571Z,1013.75
2016-06-09T07:52:16.559Z,1013.73
2016-06-09T07:53:16.530Z,1013.75
2016-06-09T07:54:16.533Z,1013.78
2016-06-09T07:55:16.505Z,1013.79
2016-06-09T07:56:16.509Z,1013.78
2016-06-09T07:57:16.496Z,1013.75
2016-06-09T07:58:16.468Z,1013.78
2016-06-09T07:59:16.470Z,1013.79
2016-06-09T08:00:16.443Z,1013.8
2016-06-09T08:01:16.430Z,1013.77
2016-06-09T08:02:16.417Z,1013.8
2016-06-09T08:03:16.405Z,1013.82
2016-06-09T08:04:16.408Z,1013.81
2016-06-09T08:05:16.395Z,1013.83
2016-06-09T08:06:16.368Z,1013.81
2016-06-09T08:07:16.370Z,1013.86
2016-06-09T08:08:16.343Z,1013.83
2016-06-09T08:09:16.330Z,1013.82
2016-06-09T08:10:16.332Z,1013.79
2016-06-09T08:11:16.320Z,1013.77
2016-06-09T08:12:16.292Z,1013.8
2016-06-09T08:13:16.279Z,1013.77
2016-06-09T08:14:16.267Z,1013.78
2016-06-09T08:15:16.253Z,1013.79
2016-06-09T08:16:16.242Z,1013.76
2016-06-09T08:17:16.245Z,1013.81
2016-06-09T08:18:16.216Z,1013.84
2016-06-09T08:19:16.204Z,1013.8
2016-06-09T08:20:16.598Z,1013.82
2016-06-09T08:21:16.179Z,1013.84
2016-06-09T08:22:16.167Z,1013.84
2016-06-09T08:23:16.153Z,1013.83
2016-06-09T08:24:16.157Z,1013.82
2016-06-09T08:25:16.131Z,1013.86
2016-06-09T08:26:16.160Z,1013.87
2016-06-09T08:27:16.191Z,1013.87
2016-06-09T08:28:16.220Z,1013.87
2016-06-09T08:29:16.252Z,1013.83
2016-06-09T08:30:16.342Z,1013.89
2016-06-09T08:31:16.282Z,1013.85
2016-06-09T08:32:16.301Z,1013.87
2016-06-09T08:33:16.304Z,1013.88
2016-06-09T08:34:16.306Z,1013.84
2016-06-09T08:35:16.293Z,1013.87
2016-06-09T08:36:16.677Z,1013.91
2016-06-09T08:37:16.280Z,1013.87
2016-06-09T08:38:16.584Z,1013.86
2016-06-09T08:39:16.264Z,1013.86
2016-06-09T08:40:16.257Z,1013.85
2016-06-09T08:41:16.246Z,1013.86
2016-06-09T08:42:16.236Z,1013.84
2016-06-09T08:43:16.226Z,1013.83
2016-06-09T08:44:16.215Z,1013.86
2016-06-09T08:45:16.204Z,1013.85
2016-06-09T08:46:16.442Z,1013.86
2016-06-09T08:47:16.180Z,1013.8
2016-06-09T08:48:16.169Z,1013.84
2016-06-09T08:49:16.157Z,1013.84
2016-06-09T08:50:16.145Z,1013.82
2016-06-09T08:51:16.133Z,1013.87
2016-06-09T08:52:16.136Z,1013.84
2016-06-09T08:53:16.109Z,1013.84
2016-06-09T08:54:16.456Z,1013.83
2016-06-09T08:55:16.084Z,1013.85
2016-06-09T08:56:16.073Z,1013.83
2016-06-09T08:57:16.059Z,1013.81
2016-06-09T08:58:16.047Z,1013.84
2016-06-09T08:59:16.050Z,1013.86
2016-06-09T09:00:16.021Z,1013.89
2016-06-09T09:01:16.009Z,1013.9
2016-06-09T09:02:16.496Z,1013.88
2016-06-09T09:03:15.983Z,1013.92
2016-06-09T09:04:15.971Z,1013.9
2016-06-09T09:05:15.959Z,1013.89
2016-06-09T09:06:15.978Z,1013.94
2016-06-09T09:07:15.934Z,1013.95
2016-06-09T09:08:15.921Z,1013.92
2016-06-09T09:09:15.909Z,1013.91
2016-06-09T09:10:16.505Z,1013.93
2016-06-09T09:11:15.884Z,1013.88
2016-06-09T09:12:15.871Z,1013.86
2016-06-09T09:13:15.859Z,1013.84
2016-06-09T09:14:15.846Z,1013.87
2016-06-09T09:15:15.834Z,1013.84
2016-06-09T09:16:15.836Z,1013.87
2016-06-09T09:17:15.809Z,1013.82
2016-06-09T09:18:16.499Z,1013.84
2016-06-09T09:19:15.783Z,1013.85
2016-06-09T09:20:16.474Z,1013.85
2016-06-09T09:21:15.821Z,1013.86
2016-06-09T09:22:15.745Z,1013.84
2016-06-09T09:23:15.733Z,1013.8
2016-06-09T09:24:15.720Z,1013.85
2016-06-09T09:25:15.708Z,1013.81
2016-06-09T09:26:16.554Z,1013.82
2016-06-09T09:27:15.682Z,1013.77
2016-06-09T09:28:15.671Z,1013.83
2016-06-09T09:29:15.657Z,1013.83
2016-06-09T09:30:15.644Z,1013.79
2016-06-09T09:31:15.633Z,1013.87
2016-06-09T09:32:15.619Z,1013.81
2016-06-09T09:33:15.607Z,1013.85
2016-06-09T09:34:15.798Z,1013.85
2016-06-09T09:35:15.582Z,1013.85
2016-06-09T09:36:15.867Z,1013.78
2016-06-09T09:37:15.557Z,1013.76
2016-06-09T09:38:15.545Z,1013.79
2016-06-09T09:39:15.532Z,1013.82
2016-06-09T09:40:15.519Z,1013.76
2016-06-09T09:41:15.507Z,1013.79
2016-06-09T09:42:15.792Z,1013.78
2016-06-09T09:43:15.481Z,1013.81
2016-06-09T09:44:15.470Z,1013.81
2016-06-09T09:45:15.504Z,1013.82
2016-06-09T09:46:15.444Z,1013.75
2016-06-09T09:47:15.432Z,1013.78
2016-06-09T09:48:15.418Z,1013.76
2016-06-09T09:49:15.407Z,1013.79
2016-06-09T09:50:15.800Z,1013.78
2016-06-09T09:51:15.382Z,1013.81
2016-06-09T09:52:15.370Z,1013.79
2016-06-09T09:53:15.372Z,1013.82
2016-06-09T09:54:15.343Z,1013.83
2016-06-09T09:55:15.332Z,1013.86
2016-06-09T09:56:15.319Z,1013.87
2016-06-09T09:57:15.306Z,1013.87
2016-06-09T09:58:15.794Z,1013.87
2016-06-09T09:59:15.280Z,1013.87
2016-06-09T10:00:15.269Z,1013.89
2016-06-09T10:01:15.256Z,1013.84
2016-06-09T10:02:15.243Z,1013.85
2016-06-09T10:03:15.231Z,1013.82
2016-06-09T10:04:15.218Z,1013.86
2016-06-09T10:05:15.206Z,1013.83
2016-06-09T10:06:15.209Z,1013.83
2016-06-09T10:07:15.180Z,1013.84
2016-06-09T10:08:15.168Z,1013.88
2016-06-09T10:09:15.156Z,1013.83
2016-06-09T10:10:15.142Z,1013.85
2016-06-09T10:11:15.131Z,1013.82
2016-06-09T10:12:15.118Z,1013.84
2016-06-09T10:13:15.106Z,1013.82
2016-06-09T10:14:15.093Z,1013.84
2016-06-09T10:15:15.080Z,1013.88
2016-06-09T10:16:15.068Z,1013.85
2016-06-09T10:17:15.055Z,1013.86
2016-06-09T10:18:15.042Z,1013.84
2016-06-09T10:19:15.030Z,1013.89
2016-06-09T10:20:15.767Z,1013.84
2016-06-09T10:21:15.006Z,1013.87
2016-06-09T10:22:14.992Z,1013.85
2016-06-09T10:23:14.980Z,1013.83
2016-06-09T10:24:14.968Z,1013.84
2016-06-09T10:25:14.954Z,1013.84
2016-06-09T10:26:14.941Z,1013.84
2016-06-09T10:27:14.930Z,1013.84
2016-06-09T10:28:14.917Z,1013.86
2016-06-09T10:29:14.905Z,1013.79
2016-06-09T10:30:14.892Z,1013.76
2016-06-09T10:31:14.880Z,1013.83
2016-06-09T10:32:14.867Z,1013.79
2016-06-09T10:33:14.854Z,1013.79
2016-06-09T10:34:14.841Z,1013.75
2016-06-09T10:35:14.829Z,1013.81
2016-06-09T10:36:14.817Z,1013.79
2016-06-09T10:37:14.804Z,1013.78
2016-06-09T10:38:14.791Z,1013.76
2016-06-09T10:39:14.778Z,1013.78
2016-06-09T10:40:14.767Z,1013.8
2016-06-09T10:41:14.754Z,1013.77
2016-06-09T10:42:14.741Z,1013.75
2016-06-09T10:43:14.729Z,1013.71
2016-06-09T10:44:14.716Z,1013.72
2016-06-09T10:45:14.704Z,1013.73
2016-06-09T10:46:14.692Z,1013.68
2016-06-09T10:47:14.678Z,1013.74
2016-06-09T10:48:14.666Z,1013.77
2016-06-09T10:49:14.654Z,1013.74
2016-06-09T10:50:14.640Z,1013.73
2016-06-09T10:51:14.629Z,1013.7
2016-06-09T10:52:14.616Z,1013.7
2016-06-09T10:53:14.604Z,1013.75
2016-06-09T10:54:14.591Z,1013.71
2016-06-09T10:55:14.577Z,1013.74
2016-06-09T10:56:14.566Z,1013.72
2016-06-09T10:57:14.553Z,1013.68
2016-06-09T10:58:14.540Z,1013.73
2016-06-09T10:59:14.528Z,1013.7
2016-06-09T11:00:14.516Z,1013.72
2016-06-09T11:01:22.018Z,1013.72
2016-06-09T11:02:14.491Z,1013.75
2016-06-09T11:03:14.477Z,1013.75
2016-06-09T11:04:14.466Z,1013.72
2016-06-09T11:05:14.453Z,1013.7
2016-06-09T11:06:14.424Z,1013.69
2016-06-09T11:07:14.428Z,1013.71
2016-06-09T11:08:14.400Z,1013.74
2016-06-09T11:09:14.403Z,1013.77
2016-06-09T11:10:14.390Z,1013.74
2016-06-09T11:11:14.377Z,1013.74
2016-06-09T11:12:14.365Z,1013.77
2016-06-09T11:13:14.336Z,1013.73
2016-06-09T11:14:14.339Z,1013.75
2016-06-09T11:15:14.311Z,1013.76
2016-06-09T11:16:14.314Z,1013.79
2016-06-09T11:17:14.286Z,1013.75
2016-06-09T11:18:14.273Z,1013.75
2016-06-09T11:19:14.277Z,1013.75
2016-06-09T11:20:14.248Z,1013.76
2016-06-09T11:21:14.252Z,1013.75
2016-06-09T11:22:14.224Z,1013.74
2016-06-09T11:23:14.227Z,1013.71
2016-06-09T11:24:14.230Z,1013.72
2016-06-09T11:25:14.202Z,1013.71
2016-06-09T11:26:14.189Z,1013.67
2016-06-09T11:27:14.161Z,1013.68
2016-06-09T11:28:14.149Z,1013.66
2016-06-09T11:29:14.151Z,1013.65
2016-06-09T11:30:14.139Z,1013.7
2016-06-09T11:31:14.110Z,1013.71
2016-06-09T11:32:14.113Z,1013.72
2016-06-09T11:33:14.102Z,1013.73
2016-06-09T11:34:14.073Z,1013.75
2016-06-09T11:35:14.075Z,1013.72
2016-06-09T11:36:14.048Z,1013.71
2016-06-09T11:37:14.035Z,1013.75
2016-06-09T11:38:14.023Z,1013.74
2016-06-09T11:39:14.010Z,1013.73
2016-06-09T11:40:13.998Z,1013.73
2016-06-09T11:41:14.002Z,1013.75
2016-06-09T11:42:13.972Z,1013.69
2016-06-09T11:43:13.961Z,1013.73
2016-06-09T11:44:13.948Z,1013.73
2016-06-09T11:45:13.935Z,1013.67
2016-06-09T11:46:13.923Z,1013.71
2016-06-09T11:47:13.910Z,1013.74
2016-06-09T11:48:13.898Z,1013.74
2016-06-09T11:49:13.884Z,1013.71
2016-06-09T11:50:13.872Z,1013.73
2016-06-09T11:51:13.860Z,1013.71
2016-06-09T11:52:13.847Z,1013.67
2016-06-09T11:53:13.834Z,1013.66
2016-06-09T11:54:13.823Z,1013.66
2016-06-09T11:55:13.825Z,1013.66
2016-06-09T11:56:13.798Z,1013.67
2016-06-09T11:57:13.800Z,1013.66
2016-06-09T11:58:13.772Z,1013.67
2016-06-09T11:59:13.760Z,1013.64
2016-06-09T12:00:13.746Z,1013.7
2016-06-09T12:01:13.750Z,1013.65
2016-06-09T12:02:13.737Z,1013.69
2016-06-09T12:03:13.709Z,1013.67
2016-06-09T12:04:13.712Z,1013.71
2016-06-09T12:05:13.684Z,1013.65
2016-06-09T12:06:13.687Z,1013.64
2016-06-09T12:07:13.846Z,1013.64
2016-06-09T12:08:13.646Z,1013.66